Time;durP1;ratioP1;P1;durP2;ratioP2;P2;SDS_P1;SDS_P2;PMS_P1;PMS_P2;Temp;Humidity;BMP_temperature;BMP_pressure;BME280_temperature;BME280_humidity;BME280_pressure;Samples;Min_cycle;Max_cycle;Signal;HPM_P1;HPM_P2
2021/12/06 00:01:31;;;;;;;3.38;2.20;;;;;;;-6.17;78.88;101165.97;5062226;28;20051;-67
2021/12/06 00:04:03;;;;;;;4.07;2.28;;;;;;;-6.16;78.92;101162.66;5063292;28;20139;-67
2021/12/06 00:06:33;;;;;;;2.65;2.00;;;;;;;-6.17;78.95;101168.50;5063861;28;20515;-67
2021/12/06 00:08:59;;;;;;;4.47;2.38;;;;;;;-6.19;79.10;101167.50;5063516;28;20454;-67
2021/12/06 00:11:24;;;;;;;5.10;2.97;;;;;;;-6.20;78.95;101174.22;5063904;28;20025;-67
2021/12/06 00:13:50;;;;;;;3.97;2.65;;;;;;;-6.20;79.13;101174.22;5063721;28;20035;-67
2021/12/06 00:16:20;;;;;;;5.10;2.40;;;;;;;-6.26;79.15;101168.72;5063275;28;20052;-67
2021/12/06 00:18:47;;;;;;;3.75;2.42;;;;;;;-6.31;79.30;101168.34;5063418;28;20021;-67
2021/12/06 00:21:12;;;;;;;7.03;2.80;;;;;;;-6.26;79.24;101174.63;5063403;28;20047;-67
2021/12/06 00:23:39;;;;;;;3.95;2.80;;;;;;;-6.28;79.26;101168.59;5063324;28;20100;-67
2021/12/06 00:26:07;;;;;;;4.82;2.85;;;;;;;-6.29;79.47;101178.59;5063407;28;20508;-67
2021/12/06 00:28:35;;;;;;;2.25;1.92;;;;;;;-6.29;79.28;101179.47;5063192;28;20025;-67
2021/12/06 00:31:02;;;;;;;5.55;2.92;;;;;;;-6.28;79.23;101176.19;5062963;28;20104;-67
2021/12/06 00:33:28;;;;;;;4.38;2.67;;;;;;;-6.37;79.26;101162.84;5063327;28;20029;-67
2021/12/06 00:35:56;;;;;;;4.97;2.55;;;;;;;-6.33;79.41;101171.56;5063385;28;20074;-67
2021/12/06 00:38:22;;;;;;;2.88;2.22;;;;;;;-6.36;79.46;101183.19;5062911;28;20021;-67
2021/12/06 00:40:49;;;;;;;4.78;2.80;;;;;;;-6.37;79.49;101175.50;5063477;28;20135;-67
2021/12/06 00:43:21;;;;;;;3.75;2.85;;;;;;;-6.37;79.55;101183.06;5062972;28;20028;-67
2021/12/06 00:45:47;;;;;;;5.05;2.90;;;;;;;-6.38;79.67;101173.75;5062813;28;20472;-67
2021/12/06 00:48:12;;;;;;;5.72;2.45;;;;;;;-6.39;79.75;101172.00;5062875;28;20040;-67
2021/12/06 00:50:40;;;;;;;6.82;3.20;;;;;;;-6.40;79.76;101171.09;5063047;28;20029;-67
2021/12/06 00:53:07;;;;;;;2.88;2.35;;;;;;;-6.41;79.93;101171.00;5061574;28;20118;-66
2021/12/06 00:55:32;;;;;;;7.00;3.63;;;;;;;-6.41;79.63;101168.47;5063025;28;20029;-67
2021/12/06 00:57:59;;;;;;;4.35;2.42;;;;;;;-6.33;79.53;101177.50;5063074;28;20027;-67
2021/12/06 01:00:30;;;;;;;4.10;2.30;;;;;;;-6.43;79.77;101164.94;5062539;28;20032;-67
2021/12/06 01:02:56;;;;;;;6.63;2.97;;;;;;;-6.44;79.83;101164.09;5063003;28;20036;-66
2021/12/06 01:05:23;;;;;;;7.72;2.65;;;;;;;-6.46;79.78;101152.97;5061533;28;20071;-66
2021/12/06 01:07:51;;;;;;;3.35;2.15;;;;;;;-6.41;79.82;101169.34;5062663;28;20438;-66
2021/12/06 01:10:17;;;;;;;4.75;2.53;;;;;;;-6.44;80.01;101165.72;5062572;28;20089;-67
2021/12/06 01:12:43;;;;;;;2.35;1.75;;;;;;;-6.43;79.96;101167.47;5062686;28;20052;-66
2021/12/06 01:15:09;;;;;;;3.63;2.38;;;;;;;-6.46;80.28;101175.72;5062477;28;20309;-68
2021/12/06 01:17:35;;;;;;;2.92;2.00;;;;;;;-6.52;80.09;101165.16;5062563;28;20048;-67
2021/12/06 01:20:04;;;;;;;3.28;2.10;;;;;;;-6.45;80.22;101164.81;5062406;28;20043;-67
2021/12/06 01:22:41;;;;;;;2.75;2.03;;;;;;;-6.45;80.32;101167.34;5062549;28;20029;-67
2021/12/06 01:25:19;;;;;;;4.85;2.47;;;;;;;-6.49;80.39;101170.44;5062595;28;20457;-66
2021/12/06 01:30:48;;;;;;;4.88;2.00;;;;;;;-6.48;80.30;101170.56;5062171;28;20043;-67
2021/12/06 01:41:25;;;;;;;2.33;1.88;;;;;;;-6.49;80.44;101168.81;5062636;28;20048;-67
2021/12/06 01:44:10;;;;;;;4.53;2.60;;;;;;;-6.45;80.35;101142.09;5062480;28;20160;-67
2021/12/06 01:46:38;;;;;;;3.03;1.98;;;;;;;-6.40;80.46;101158.47;5062303;28;20108;-67
2021/12/06 01:49:06;;;;;;;6.43;3.17;;;;;;;-6.45;80.44;101156.41;5060930;28;20022;-68
2021/12/06 01:51:32;;;;;;;2.90;1.90;;;;;;;-6.39;80.63;101151.78;5062610;28;20055;-68
2021/12/06 01:53:58;;;;;;;6.22;2.97;;;;;;;-6.43;80.61;101160.78;5062679;28;20024;-68
2021/12/06 01:56:23;;;;;;;5.63;3.13;;;;;;;-6.41;80.73;101155.84;5065699;28;20031;-68
2021/12/06 01:58:49;;;;;;;4.40;2.15;;;;;;;-6.36;80.60;101152.00;5066047;28;20013;-68
2021/12/06 02:01:14;;;;;;;2.03;1.67;;;;;;;-6.38;80.78;101158.59;5065816;28;20043;-68
2021/12/06 02:03:40;;;;;;;4.10;2.75;;;;;;;-6.42;80.98;101161.66;5066195;28;20041;-68
2021/12/06 02:06:05;;;;;;;5.05;2.40;;;;;;;-6.30;80.56;101162.56;5066004;28;20021;-68
2021/12/06 02:08:31;;;;;;;2.90;2.20;;;;;;;-6.30;80.75;101162.56;5065571;28;20097;-68
2021/12/06 02:11:02;;;;;;;6.28;2.88;;;;;;;-6.32;80.66;101168.25;5065923;28;20144;-68
2021/12/06 02:13:32;;;;;;;4.88;2.95;;;;;;;-6.31;80.77;101173.41;5064699;28;20028;-68
2021/12/06 02:16:02;;;;;;;2.40;1.88;;;;;;;-6.28;80.76;101163.56;5065797;28;20033;-68
2021/12/06 02:18:41;;;;;;;4.00;3.05;;;;;;;-6.30;80.37;101157.50;5065452;28;20350;-68
2021/12/06 02:21:20;;;;;;;6.45;2.40;;;;;;;-6.28;80.60;101163.56;5065767;28;20021;-68
2021/12/06 02:23:47;;;;;;;3.83;2.17;;;;;;;-6.28;80.64;101158.50;5065599;28;20025;-68
2021/12/06 02:26:13;;;;;;;3.72;2.28;;;;;;;-6.31;80.67;101153.19;5065552;28;20045;-68
2021/12/06 02:28:39;;;;;;;2.60;1.65;;;;;;;-6.25;80.79;101170.47;5065357;28;20024;-68
2021/12/06 02:31:04;;;;;;;4.82;3.28;;;;;;;-6.24;80.45;101169.69;5065186;28;20058;-68
2021/12/06 02:33:30;;;;;;;3.45;2.20;;;;;;;-6.24;80.61;101175.63;5064311;28;20021;-68
2021/12/06 02:35:55;;;;;;;3.13;1.83;;;;;;;-6.20;80.23;101166.63;5065222;28;20080;-68
2021/12/06 02:38:21;;;;;;;2.25;1.63;;;;;;;-6.21;80.31;101177.50;5065186;28;20017;-68
2021/12/06 02:40:46;;;;;;;4.60;3.33;;;;;;;-6.21;80.65;101174.97;5065350;28;20408;-67
2021/12/06 02:43:13;;;;;;;3.45;2.00;;;;;;;-6.24;80.64;101169.69;5065398;28;20021;-67
2021/12/06 02:45:40;;;;;;;3.60;2.60;;;;;;;-6.17;80.44;101165.97;5065018;28;20033;-68
2021/12/06 02:48:08;;;;;;;2.78;2.28;;;;;;;-6.23;80.51;101164.75;5064905;28;20032;-68
2021/12/06 02:50:39;;;;;;;3.40;2.55;;;;;;;-6.20;80.56;101155.63;5063656;28;20031;-67
2021/12/06 02:53:05;;;;;;;3.72;2.80;;;;;;;-6.23;80.49;101156.31;5065326;28;20045;-68
2021/12/06 02:55:36;;;;;;;3.03;2.03;;;;;;;-6.25;80.36;101160.34;5065101;28;20029;-67
2021/12/06 02:58:22;;;;;;;3.97;2.10;;;;;;;-6.25;80.42;101161.25;5065360;28;20051;-67
2021/12/06 03:00:54;;;;;;;3.08;2.03;;;;;;;-6.26;80.29;101166.19;5065165;28;20044;-67
2021/12/06 03:03:21;;;;;;;4.80;3.00;;;;;;;-6.27;80.59;101164.41;5065123;28;20516;-68
2021/12/06 03:05:50;;;;;;;2.72;1.80;;;;;;;-6.26;80.63;101164.53;5065051;28;20056;-68
2021/12/06 03:08:33;;;;;;;4.18;2.33;;;;;;;-6.26;80.50;101163.66;5064687;28;20041;-68
2021/12/06 03:10:59;;;;;;;4.38;2.45;;;;;;;-6.27;80.62;101162.78;5065166;28;20025;-68
2021/12/06 03:13:24;;;;;;;4.50;2.53;;;;;;;-6.30;80.69;101161.66;5065098;28;20027;-68
2021/12/06 03:15:50;;;;;;;3.10;1.83;;;;;;;-6.27;80.71;101156.81;5064942;28;20033;-68
2021/12/06 03:18:15;;;;;;;2.00;1.58;;;;;;;-6.25;80.49;101155.31;5064855;28;20052;-68
2021/12/06 03:20:40;;;;;;;5.55;2.95;;;;;;;-6.25;80.62;101148.59;5064705;28;20021;-68
2021/12/06 03:23:06;;;;;;;3.50;2.42;;;;;;;-6.33;80.53;101147.16;5064812;28;20025;-67
2021/12/06 03:25:31;;;;;;;3.05;2.53;;;;;;;-6.29;80.86;101140.69;5064609;28;20028;-67
2021/12/06 03:28:00;;;;;;;4.90;2.65;;;;;;;-6.24;80.63;101152.88;5063808;28;20036;-67
2021/12/06 03:30:25;;;;;;;2.45;1.73;;;;;;;-6.30;80.49;101141.44;5063321;28;20360;-68
2021/12/06 03:32:51;;;;;;;5.30;2.20;;;;;;;-6.31;80.47;101135.50;5064713;28;20027;-68
2021/12/06 03:35:16;;;;;;;3.65;1.98;;;;;;;-6.41;80.68;101143.19;5064357;28;20067;-67
2021/12/06 03:37:41;;;;;;;3.22;2.17;;;;;;;-6.38;80.64;101143.41;5064743;28;20032;-69
2021/12/06 03:40:08;;;;;;;4.80;2.47;;;;;;;-6.48;80.52;101135.19;5064418;28;20021;-68
2021/12/06 03:42:34;;;;;;;3.72;2.28;;;;;;;-6.45;80.74;101144.63;5064657;28;20024;-67
2021/12/06 03:45:00;;;;;;;2.88;2.50;;;;;;;-6.48;80.65;101137.69;5064469;28;20373;-68
2021/12/06 03:47:29;;;;;;;4.55;2.45;;;;;;;-6.50;80.86;101133.31;5064038;28;20384;-68
2021/12/06 03:49:55;;;;;;;6.40;3.35;;;;;;;-6.50;80.77;101124.06;5064067;28;20461;-68
2021/12/06 03:52:21;;;;;;;3.60;2.10;;;;;;;-6.51;80.66;101129.00;5064208;28;20481;-68
2021/12/06 03:54:48;;;;;;;4.88;2.80;;;;;;;-6.54;80.75;101124.63;5064411;28;20028;-68
2021/12/06 03:57:13;;;;;;;4.90;3.35;;;;;;;-6.57;80.83;101121.88;5064204;28;20032;-68
2021/12/06 03:59:38;;;;;;;4.95;2.50;;;;;;;-6.59;80.88;101133.50;5063929;28;20017;-68
2021/12/06 04:02:04;;;;;;;3.90;2.30;;;;;;;-6.61;80.78;101130.88;5063770;28;20037;-68
2021/12/06 04:04:30;;;;;;;4.97;3.20;;;;;;;-6.61;80.77;101122.41;5064008;28;20025;-67
2021/12/06 04:06:56;;;;;;;3.63;2.35;;;;;;;-6.73;80.75;101117.34;5063939;28;20032;-68
2021/12/06 04:09:22;;;;;;;4.97;3.03;;;;;;;-6.64;80.87;101128.13;5063670;28;20096;-68
2021/12/06 04:11:47;;;;;;;3.95;2.10;;;;;;;-6.68;80.79;101138.78;5064011;28;20469;-66
2021/12/06 04:14:13;;;;;;;4.20;2.70;;;;;;;-6.68;80.89;101127.78;5062313;28;20090;-67
2021/12/06 04:16:40;;;;;;;3.67;2.28;;;;;;;-6.74;80.80;101123.19;5063365;28;20025;-67
2021/12/06 04:19:07;;;;;;;3.30;2.85;;;;;;;-6.73;80.88;101130.88;5062074;28;20108;-67
2021/12/06 04:21:34;;;;;;;2.97;2.08;;;;;;;-6.75;80.79;101122.28;5063915;28;20020;-68
2021/12/06 04:24:00;;;;;;;4.38;2.90;;;;;;;-6.78;80.95;101119.53;5063943;28;20036;-68
2021/12/06 04:26:27;;;;;;;2.97;2.25;;;;;;;-6.82;80.99;101122.59;5063967;28;20048;-68
2021/12/06 04:28:59;;;;;;;5.15;3.33;;;;;;;-6.75;80.74;101136.56;5062307;28;20059;-68
2021/12/06 04:31:26;;;;;;;5.72;3.30;;;;;;;-6.77;80.95;101133.91;5063524;28;20282;-68
2021/12/06 04:33:52;;;;;;;2.85;2.35;;;;;;;-6.80;80.80;101120.16;5063878;28;20032;-67
2021/12/06 04:36:17;;;;;;;4.70;3.10;;;;;;;-6.78;80.89;101126.22;5062289;28;20020;-65
2021/12/06 04:38:43;;;;;;;4.57;2.47;;;;;;;-6.84;80.89;101129.19;5063776;28;20025;-67
2021/12/06 04:41:08;;;;;;;4.07;2.63;;;;;;;-6.84;80.96;101127.53;5062422;28;20036;-67
2021/12/06 04:43:33;;;;;;;3.80;2.55;;;;;;;-6.84;80.82;101126.66;5063603;28;20025;-67
2021/12/06 04:45:59;;;;;;;7.38;2.45;;;;;;;-6.86;80.93;101125.66;5063451;28;20052;-68
2021/12/06 04:48:25;;;;;;;3.42;2.50;;;;;;;-6.86;80.94;101123.13;5062054;28;20047;-67
2021/12/06 04:50:50;;;;;;;4.45;3.20;;;;;;;-6.93;81.08;101120.94;5063257;28;20048;-67
2021/12/06 04:53:21;;;;;;;5.43;3.40;;;;;;;-6.89;80.97;101127.97;5063626;28;20025;-67
2021/12/06 04:55:49;;;;;;;4.10;2.60;;;;;;;-6.89;80.89;101130.50;5063513;28;20111;-67
2021/12/06 04:59:04;;;;;;;3.85;2.65;;;;;;;-6.93;81.17;101126.00;5063300;28;20020;-67
2021/12/06 05:01:32;;;;;;;4.95;2.63;;;;;;;-6.91;81.03;101125.31;5057163;28;20090;-68
2021/12/06 05:04:02;;;;;;;6.13;1.98;;;;;;;-6.94;80.94;101132.69;5063315;28;20095;-68
2021/12/06 05:06:32;;;;;;;4.88;3.45;;;;;;;-6.99;81.00;101123.88;5061900;28;20029;-67
2021/12/06 05:09:07;;;;;;;3.67;2.35;;;;;;;-6.98;80.99;101133.22;5063001;28;20037;-65
2021/12/06 05:11:32;;;;;;;4.15;2.42;;;;;;;-7.02;80.83;101132.09;5063371;28;20045;-65
2021/12/06 05:14:01;;;;;;;3.95;2.47;;;;;;;-7.03;80.84;101127.84;5062801;28;20028;-66
2021/12/06 05:16:26;;;;;;;3.50;2.30;;;;;;;-7.03;80.80;101120.25;5062808;28;20290;-66
2021/12/06 05:18:52;;;;;;;3.72;2.38;;;;;;;-7.06;80.96;101120.00;5063048;28;20021;-66
2021/12/06 05:21:17;;;;;;;6.30;2.92;;;;;;;-7.07;80.83;101115.72;5062796;28;20555;-65
2021/12/06 05:23:43;;;;;;;3.90;1.92;;;;;;;-7.07;80.83;101119.88;5062985;28;20078;-66
2021/12/06 05:26:08;;;;;;;4.05;2.05;;;;;;;-7.08;80.97;101113.97;5063196;28;20028;-66
2021/12/06 05:28:40;;;;;;;5.68;2.13;;;;;;;-7.16;80.87;101113.41;5062748;28;20082;-68
2021/12/06 05:31:13;;;;;;;6.10;3.00;;;;;;;-7.16;80.87;101122.63;5066045;28;20039;-70
2021/12/06 05:33:40;;;;;;;6.55;3.08;;;;;;;-7.25;81.01;101100.09;5065654;28;20039;-70
2021/12/06 05:36:06;;;;;;;5.13;3.00;;;;;;;-7.18;81.04;101114.03;5065358;28;20025;-70
2021/12/06 05:38:31;;;;;;;6.32;3.35;;;;;;;-7.19;80.93;101118.22;5067005;28;20074;-71
2021/12/06 05:40:57;;;;;;;5.05;3.20;;;;;;;-7.24;80.93;101109.44;5066849;28;20056;-70
2021/12/06 05:43:24;;;;;;;6.57;3.67;;;;;;;-7.23;81.03;101111.19;5066995;28;20079;-71
2021/12/06 05:45:50;;;;;;;5.50;3.35;;;;;;;-7.30;80.99;101094.69;5066638;28;20032;-69
2021/12/06 05:48:17;;;;;;;5.10;2.20;;;;;;;-7.26;80.90;101100.84;5066861;28;20031;-69
2021/12/06 05:50:46;;;;;;;4.88;3.42;;;;;;;-7.19;80.83;101113.19;5066719;28;20020;-70
2021/12/06 05:53:12;;;;;;;4.78;3.25;;;;;;;-7.27;80.80;101094.94;5065672;28;20040;-69
2021/12/06 05:55:37;;;;;;;6.35;2.40;;;;;;;-7.21;80.92;101114.69;5066860;28;20040;-70
2021/12/06 05:58:06;;;;;;;10.75;2.83;;;;;;;-7.26;80.93;101116.88;5066462;28;20028;-69
2021/12/06 06:00:32;;;;;;;4.15;3.35;;;;;;;-7.41;81.22;101091.34;5066264;28;20040;-70
2021/12/06 06:03:03;;;;;;;6.65;3.03;;;;;;;-7.30;81.24;101114.88;5066442;28;20047;-69
2021/12/06 06:05:29;;;;;;;6.72;3.42;;;;;;;-7.34;81.11;101107.84;5066619;28;20124;-68
2021/12/06 06:07:55;;;;;;;5.57;3.50;;;;;;;-7.29;81.16;101125.84;5066222;28;20098;-70
2021/12/06 06:10:21;;;;;;;6.07;2.97;;;;;;;-7.37;81.35;101111.03;5066388;28;20029;-70
2021/12/06 06:12:47;;;;;;;7.18;3.17;;;;;;;-7.36;81.15;101109.38;5066449;28;20032;-69
2021/12/06 06:15:13;;;;;;;9.50;3.05;;;;;;;-7.35;81.50;101116.19;5066637;28;20059;-69
2021/12/06 06:17:40;;;;;;;4.40;2.60;;;;;;;-7.43;81.27;101104.63;5066091;28;20044;-69
2021/12/06 06:20:11;;;;;;;4.20;2.60;;;;;;;-7.38;81.21;101113.44;5066227;28;20047;-70
2021/12/06 06:22:37;;;;;;;7.10;3.42;;;;;;;-7.46;81.02;101106.16;5065139;28;20025;-70
2021/12/06 06:25:04;;;;;;;4.22;3.10;;;;;;;-7.61;81.27;101092.38;5066193;28;20061;-70
2021/12/06 06:27:29;;;;;;;9.00;4.18;;;;;;;-7.45;81.20;101117.13;5066213;28;20488;-70
2021/12/06 06:29:55;;;;;;;6.65;3.42;;;;;;;-7.49;81.34;101116.00;5064718;28;20017;-70
2021/12/06 06:32:20;;;;;;;7.60;3.50;;;;;;;-7.44;81.16;101115.50;5066066;28;20064;-71
2021/12/06 06:34:45;;;;;;;5.43;2.75;;;;;;;-7.42;81.24;101119.00;5066357;28;20025;-70
2021/12/06 06:37:11;;;;;;;8.50;3.53;;;;;;;-7.41;81.23;101125.81;5065930;28;20052;-69
2021/12/06 06:39:36;;;;;;;5.60;3.28;;;;;;;-7.42;81.48;101117.34;5065832;28;20025;-69
2021/12/06 06:42:02;;;;;;;5.60;3.00;;;;;;;-7.37;81.41;101127.81;5065521;28;20033;-69
2021/12/06 06:44:27;;;;;;;5.18;3.75;;;;;;;-7.37;81.49;101135.38;5065925;28;20116;-69
2021/12/06 06:46:53;;;;;;;5.55;3.55;;;;;;;-7.39;81.74;101126.78;5065521;28;20050;-69
2021/12/06 06:49:22;;;;;;;4.90;2.90;;;;;;;-7.36;81.72;101124.50;5065611;28;20143;-68
2021/12/06 06:51:48;;;;;;;8.30;3.85;;;;;;;-7.27;81.71;101129.38;5065959;28;20124;-75
2021/12/06 06:54:14;;;;;;;10.80;3.75;;;;;;;-7.26;81.62;101136.19;5065854;28;20021;-71
2021/12/06 06:56:40;;;;;;;6.20;3.25;;;;;;;-7.21;81.62;101139.94;5065541;28;20119;-69
2021/12/06 06:59:06;;;;;;;5.90;3.33;;;;;;;-7.21;81.59;101134.88;5065761;28;20044;-69
2021/12/06 07:01:34;;;;;;;2.42;2.08;;;;;;;-7.24;81.56;101132.13;5065455;28;20108;-69
2021/12/06 07:04:00;;;;;;;3.75;2.30;;;;;;;-7.20;81.58;101130.72;5065330;28;20080;-69
2021/12/06 07:06:27;;;;;;;6.93;4.00;;;;;;;-7.20;81.42;101129.06;5065179;28;20051;-69
2021/12/06 07:08:54;;;;;;;6.30;2.70;;;;;;;-7.22;81.46;101126.44;5064914;28;20063;-69
2021/12/06 07:11:21;;;;;;;6.03;3.03;;;;;;;-7.18;81.67;101129.19;5064111;28;20071;-69
2021/12/06 07:13:47;;;;;;;5.35;3.03;;;;;;;-7.15;81.49;101130.31;5065328;28;20028;-69
2021/12/06 07:16:14;;;;;;;4.45;2.03;;;;;;;-7.13;81.50;101125.38;5065114;28;20048;-68
2021/12/06 07:18:40;;;;;;;9.50;3.95;;;;;;;-7.17;81.45;101126.78;5065165;28;20021;-69
2021/12/06 07:21:06;;;;;;;4.75;2.83;;;;;;;-7.13;81.36;101132.94;5065166;28;20035;-69
2021/12/06 07:23:32;;;;;;;5.70;3.22;;;;;;;-7.13;81.45;101130.41;5065373;28;20104;-69
2021/12/06 07:25:57;;;;;;;7.57;3.33;;;;;;;-7.07;81.54;101125.81;5065040;28;20025;-69
2021/12/06 07:28:22;;;;;;;5.30;3.10;;;;;;;-7.03;81.60;101132.88;5064157;28;20056;-69
2021/12/06 07:30:48;;;;;;;10.02;4.45;;;;;;;-6.98;81.37;101141.66;5064215;28;20029;-69
2021/12/06 07:33:20;;;;;;;5.22;3.20;;;;;;;-7.01;81.58;101136.38;5065225;28;20020;-69
2021/12/06 07:35:45;;;;;;;6.30;3.88;;;;;;;-6.93;81.25;101136.09;5064985;28;20035;-68
2021/12/06 07:38:12;;;;;;;7.70;3.10;;;;;;;-6.91;81.25;101129.50;5064760;28;20089;-70
2021/12/06 07:40:38;;;;;;;6.20;3.47;;;;;;;-6.90;81.21;101126.22;5064758;28;20021;-69
2021/12/06 07:43:03;;;;;;;3.63;2.90;;;;;;;-6.89;81.34;101128.84;5063289;28;20032;-70
2021/12/06 07:45:29;;;;;;;5.28;3.05;;;;;;;-6.94;81.20;101115.00;5064548;28;20020;-70
2021/12/06 07:47:54;;;;;;;4.45;2.10;;;;;;;-6.94;81.28;101111.59;5064480;28;20527;-70
2021/12/06 07:50:21;;;;;;;7.32;3.22;;;;;;;-6.79;81.04;101134.59;5063057;28;20025;-70
2021/12/06 07:52:50;;;;;;;4.45;3.05;;;;;;;-6.84;81.04;101129.19;5063887;28;20044;-70
2021/12/06 07:55:17;;;;;;;3.97;2.30;;;;;;;-6.77;80.91;101125.47;5064644;28;20025;-70
2021/12/06 07:57:42;;;;;;;5.97;3.63;;;;;;;-6.73;80.87;101129.97;5064527;28;20025;-70
2021/12/06 08:00:14;;;;;;;5.72;3.20;;;;;;;-6.70;81.03;101134.38;5062951;28;20032;-71
2021/12/06 08:02:40;;;;;;;8.02;3.95;;;;;;;-6.73;81.06;101120.75;5064129;28;20049;-69
2021/12/06 08:07:50;;;;;;;6.70;4.07;;;;;;;-6.69;80.82;101118.47;5064189;28;20114;-69
2021/12/06 08:10:15;;;;;;;11.50;4.30;;;;;;;-6.66;81.02;101116.16;5064158;28;20076;-69
2021/12/06 08:12:41;;;;;;;3.05;2.00;;;;;;;-6.65;80.86;101108.69;5064512;28;20036;-70
2021/12/06 08:15:07;;;;;;;8.10;3.40;;;;;;;-6.62;80.66;101128.25;5064088;28;20343;-71
2021/12/06 08:17:32;;;;;;;8.45;3.50;;;;;;;-6.62;80.69;101115.59;5064108;28;20025;-70
2021/12/06 08:19:58;;;;;;;5.13;2.97;;;;;;;-6.60;80.73;101112.41;5064166;28;20027;-70
2021/12/06 08:22:23;;;;;;;7.40;3.70;;;;;;;-6.66;80.40;101096.81;5064098;28;20081;-70
2021/12/06 08:24:49;;;;;;;3.65;2.63;;;;;;;-6.57;80.67;101118.47;5064003;28;20036;-70
2021/12/06 08:27:14;;;;;;;2.50;2.17;;;;;;;-6.56;80.34;101107.56;5064036;28;20029;-70
2021/12/06 08:29:39;;;;;;;5.18;2.80;;;;;;;-6.52;80.13;101107.94;5063826;28;20029;-69
2021/12/06 08:32:07;;;;;;;7.05;3.30;;;;;;;-6.61;80.32;101092.09;5063611;28;20035;-69
2021/12/06 08:34:33;;;;;;;4.25;2.97;;;;;;;-6.55;80.46;101099.25;5063808;28;20027;-70
2021/12/06 08:36:58;;;;;;;2.53;2.03;;;;;;;-6.45;80.45;101100.81;5063754;28;20103;-70
2021/12/06 08:39:23;;;;;;;3.60;2.25;;;;;;;-6.53;80.31;101082.56;5063776;28;20017;-71
2021/12/06 08:41:49;;;;;;;4.53;2.80;;;;;;;-6.44;80.21;101103.44;5063775;28;20033;-70
2021/12/06 08:44:15;;;;;;;2.70;1.40;;;;;;;-6.33;80.19;101094.09;5063685;28;20024;-70
2021/12/06 08:46:40;;;;;;;5.53;2.67;;;;;;;-6.36;80.13;101096.41;5063524;28;20025;-70
2021/12/06 08:49:09;;;;;;;4.57;2.15;;;;;;;-6.36;80.08;101091.34;5063761;28;20016;-70
2021/12/06 08:51:41;;;;;;;6.45;3.00;;;;;;;-6.37;80.02;101087.03;5063631;28;20439;-69
2021/12/06 08:54:08;;;;;;;4.45;2.35;;;;;;;-6.35;80.06;101080.47;5063776;28;20261;-70
2021/12/06 08:56:35;;;;;;;3.20;2.15;;;;;;;-6.26;79.82;101072.69;5063620;28;20024;-70
2021/12/06 08:59:00;;;;;;;3.80;2.28;;;;;;;-6.25;80.08;101070.25;5063571;28;20036;-70
2021/12/06 09:01:27;;;;;;;6.65;3.22;;;;;;;-6.27;79.96;101068.38;5061918;28;20537;-70
2021/12/06 09:03:53;;;;;;;4.07;2.67;;;;;;;-6.19;79.98;101068.91;5063520;28;20021;-70
2021/12/06 09:06:19;;;;;;;5.20;2.80;;;;;;;-6.18;79.74;101070.69;5063330;28;20119;-71
2021/12/06 09:08:46;;;;;;;4.10;2.78;;;;;;;-6.18;79.81;101066.47;5063220;28;20144;-70
2021/12/06 09:11:12;;;;;;;5.15;2.75;;;;;;;-6.14;79.31;101070.13;5063316;28;20029;-70
2021/12/06 09:13:38;;;;;;;6.10;3.08;;;;;;;-6.17;79.33;101058.16;5063353;28;20055;-69
2021/12/06 09:16:06;;;;;;;4.55;3.05;;;;;;;-6.12;79.47;101071.09;5062982;28;20089;-70
2021/12/06 09:18:35;;;;;;;1.30;1.15;;;;;;;-6.08;79.23;101072.19;5063469;28;20024;-72
2021/12/06 09:21:04;;;;;;;3.22;1.92;;;;;;;-6.04;78.96;101077.56;5062184;28;20024;-70
2021/12/06 09:23:29;;;;;;;4.65;3.05;;;;;;;-6.08;79.28;101083.19;5063476;28;20058;-70
2021/12/06 09:25:55;;;;;;;5.38;2.85;;;;;;;-5.99;79.04;101090.53;5062098;28;20025;-70
2021/12/06 09:28:21;;;;;;;5.35;3.13;;;;;;;-5.92;78.41;101081.69;5063225;28;20088;-70
2021/12/06 09:30:46;;;;;;;6.28;3.40;;;;;;;-6.01;79.08;101085.34;5062892;28;20072;-70
2021/12/06 09:33:15;;;;;;;4.95;2.90;;;;;;;-5.96;79.25;101090.72;5063307;28;20456;-70
2021/12/06 09:35:50;;;;;;;3.45;1.90;;;;;;;-5.88;79.01;101097.19;5061973;28;20017;-73
2021/12/06 09:38:20;;;;;;;3.95;2.35;;;;;;;-5.92;78.90;101100.28;5063267;28;20021;-70
2021/12/06 09:40:49;;;;;;;2.42;1.98;;;;;;;-5.94;79.03;101091.69;5063033;28;20131;-71
2021/12/06 09:43:16;;;;;;;3.30;2.45;;;;;;;-5.84;78.89;101103.34;5063223;28;20028;-69
2021/12/06 09:45:43;;;;;;;4.25;3.03;;;;;;;-5.81;78.75;101092.56;5063050;28;20025;-70
2021/12/06 09:48:12;;;;;;;5.45;2.80;;;;;;;-5.77;78.78;101100.47;5063170;28;20236;-71
2021/12/06 09:50:43;;;;;;;4.32;2.50;;;;;;;-5.85;78.76;101073.78;5062971;28;20040;-69
2021/12/06 09:53:11;;;;;;;3.17;2.10;;;;;;;-5.70;78.76;101086.56;5063430;28;20078;-70
2021/12/06 09:55:38;;;;;;;3.70;2.38;;;;;;;-5.72;78.55;101081.41;5063045;28;20044;-70
2021/12/06 09:58:05;;;;;;;4.88;2.88;;;;;;;-5.70;77.98;101060.44;5063063;28;20025;-70
2021/12/06 10:00:35;;;;;;;2.63;1.92;;;;;;;-5.62;77.63;101074.44;5062945;28;20025;-70
2021/12/06 10:03:00;;;;;;;3.03;2.22;;;;;;;-5.75;77.71;101062.63;5062846;28;20116;-70
2021/12/06 10:05:29;;;;;;;1.90;1.60;;;;;;;-5.64;78.04;101076.03;5062948;28;20059;-70
2021/12/06 10:07:55;;;;;;;3.55;2.13;;;;;;;-5.67;77.95;101061.50;5062606;28;20061;-71
2021/12/06 10:10:20;;;;;;;4.82;2.50;;;;;;;-5.75;78.08;101052.53;5062549;28;20033;-70
2021/12/06 10:12:51;;;;;;;4.40;2.85;;;;;;;-5.59;78.21;101067.06;5062889;28;20020;-70
2021/12/06 10:15:16;;;;;;;6.78;2.90;;;;;;;-5.72;77.84;101038.41;5062924;28;20028;-71
2021/12/06 10:17:42;;;;;;;4.95;2.78;;;;;;;-5.56;77.29;101069.84;5066384;28;20029;-70
2021/12/06 10:20:09;;;;;;;3.67;2.20;;;;;;;-5.55;77.43;101066.53;5066514;28;20017;-70
2021/12/06 10:22:36;;;;;;;5.07;1.90;;;;;;;-5.61;77.91;101061.03;5066508;28;20021;-70
2021/12/06 10:25:03;;;;;;;4.68;2.60;;;;;;;-5.53;78.08;101064.97;5066295;28;20047;-70
2021/12/06 10:27:28;;;;;;;9.43;2.33;;;;;;;-5.56;77.65;101047.06;5066224;28;20025;-69
2021/12/06 10:30:02;;;;;;;4.68;2.80;;;;;;;-5.55;77.72;101046.28;5066189;28;20492;-70
2021/12/06 10:32:31;;;;;;;5.82;2.53;;;;;;;-5.54;77.43;101035.38;5066214;28;20031;-70
2021/12/06 10:35:00;;;;;;;3.05;2.25;;;;;;;-5.67;77.56;101022.69;5066133;28;20031;-70
2021/12/06 10:37:34;;;;;;;7.25;3.20;;;;;;;-5.46;77.36;101040.94;5066101;28;20025;-72
2021/12/06 10:40:00;;;;;;;4.32;3.13;;;;;;;-5.30;76.75;101042.84;5066099;28;20048;-70
2021/12/06 10:42:37;;;;;;;4.82;2.65;;;;;;;-5.46;77.14;101033.34;5066212;28;20028;-71
2021/12/06 10:45:13;;;;;;;3.38;2.22;;;;;;;-5.61;77.44;101010.44;5066141;28;20095;-71
2021/12/06 10:47:39;;;;;;;3.03;2.40;;;;;;;-5.51;77.51;101024.59;5065779;28;20048;-71
2021/12/06 10:50:15;;;;;;;2.05;1.83;;;;;;;-5.35;77.04;101029.88;5065851;28;20045;-70
2021/12/06 10:52:54;;;;;;;4.13;2.75;;;;;;;-5.43;77.46;101032.69;5064523;28;20037;-70
2021/12/06 10:55:21;;;;;;;4.25;2.95;;;;;;;-5.39;77.70;101037.19;5064418;28;20380;-71
2021/12/06 10:58:03;;;;;;;7.32;2.92;;;;;;;-5.51;77.53;100995.09;5065684;28;20432;-70
2021/12/06 11:00:31;;;;;;;5.57;2.67;;;;;;;-5.26;77.43;101029.63;5064115;28;20024;-70
2021/12/06 11:02:57;;;;;;;2.50;1.80;;;;;;;-5.31;77.00;100999.72;5064113;28;20036;-71
2021/12/06 11:05:25;;;;;;;4.55;2.50;;;;;;;-5.22;77.10;101031.59;5065515;28;20024;-71
2021/12/06 11:08:11;;;;;;;4.15;1.85;;;;;;;-5.16;76.83;101015.03;5062761;28;20071;-70
2021/12/06 11:10:49;;;;;;;3.85;2.40;;;;;;;-5.23;76.58;100996.94;5064608;28;20032;-70
2021/12/06 11:13:24;;;;;;;4.68;3.00;;;;;;;-5.22;76.82;101008.81;5063097;28;20021;-70
2021/12/06 11:15:59;;;;;;;2.67;1.80;;;;;;;-5.09;76.47;101009.59;5064299;28;20193;-71
2021/12/06 11:18:35;;;;;;;2.78;1.88;;;;;;;-5.11;75.94;101021.25;5064287;28;20088;-71
2021/12/06 11:21:02;;;;;;;2.88;2.38;;;;;;;-5.21;75.93;101009.69;5064659;28;20493;-72
2021/12/06 11:23:28;;;;;;;3.15;1.92;;;;;;;-5.33;76.34;101006.34;5063443;28;20051;-71
2021/12/06 11:25:56;;;;;;;4.78;2.80;;;;;;;-5.30;75.61;100983.78;5064791;28;20164;-71
2021/12/06 11:28:29;;;;;;;4.72;2.83;;;;;;;-5.42;76.11;100988.88;5064762;28;20017;-71
2021/12/06 11:31:04;;;;;;;3.40;2.28;;;;;;;-5.37;76.63;100998.53;5064865;28;20281;-71
2021/12/06 11:33:35;;;;;;;3.83;2.65;;;;;;;-5.35;76.93;100991.03;5064999;28;20025;-70
2021/12/06 11:36:17;;;;;;;4.93;2.33;;;;;;;-5.29;76.04;100982.97;5064540;28;20035;-71
2021/12/06 11:38:47;;;;;;;5.75;2.65;;;;;;;-5.26;76.39;100985.72;5064543;28;20135;-72
2021/12/06 11:41:13;;;;;;;2.90;1.67;;;;;;;-5.39;76.52;100966.31;5064824;28;20495;-71